createdAt,value
2019-02-19T00:25:06.771Z,22.30
2019-02-19T00:27:35.268Z,20.90
2019-02-19T00:30:04.165Z,22.00
2019-02-19T00:32:32.564Z,21.57
2019-02-19T00:35:01.268Z,21.80
2019-02-19T00:37:29.950Z,20.73
2019-02-19T00:39:58.400Z,20.50
2019-02-19T00:42:27.115Z,21.17
2019-02-19T00:44:55.559Z,20.50
2019-02-19T00:47:23.933Z,21.53
2019-02-19T00:49:52.394Z,21.33
2019-02-19T00:52:20.895Z,21.70
2019-02-19T00:54:49.288Z,21.03
2019-02-19T00:57:17.907Z,21.50
2019-02-19T00:59:46.372Z,21.03
2019-02-19T01:02:14.845Z,20.63
2019-02-19T01:04:43.238Z,20.10
2019-02-19T01:07:11.626Z,21.50
2019-02-19T01:09:40.082Z,21.53
2019-02-19T01:12:08.523Z,22.57
2019-02-19T01:14:37.052Z,20.20
2019-02-19T01:17:05.442Z,20.50
2019-02-19T01:19:33.905Z,21.00
2019-02-19T01:22:02.304Z,20.47
2019-02-19T01:24:30.738Z,20.37
2019-02-19T01:26:59.520Z,20.60
2019-02-19T01:29:28.224Z,21.03
2019-02-19T01:31:56.616Z,20.50
2019-02-19T01:34:24.805Z,19.73
2019-02-19T01:36:53.217Z,19.67
2019-02-19T01:39:21.655Z,19.10
2019-02-19T01:41:50.069Z,21.03
2019-02-19T01:44:18.503Z,19.67
2019-02-19T01:46:46.951Z,19.40
2019-02-19T01:49:15.580Z,19.73
2019-02-19T01:51:44.016Z,19.17
2019-02-19T01:54:12.767Z,20.23
2019-02-19T01:56:41.126Z,18.80
2019-02-19T01:59:09.892Z,20.40
2019-02-19T02:01:38.419Z,19.27
2019-02-19T02:04:06.858Z,20.00
2019-02-19T02:06:35.378Z,20.50
2019-02-19T02:09:04.930Z,20.87
2019-02-19T02:11:33.379Z,21.63
2019-02-19T02:14:01.907Z,19.80
2019-02-19T02:16:30.493Z,21.17
2019-02-19T02:18:59.173Z,21.70
2019-02-19T02:21:27.639Z,19.73
2019-02-19T02:23:56.250Z,19.97
2019-02-19T02:26:24.654Z,20.53
2019-02-19T02:28:53.155Z,19.50
2019-02-19T02:31:21.643Z,20.33
2019-02-19T02:33:50.355Z,19.13
2019-02-19T02:36:18.926Z,20.47
2019-02-19T02:38:47.302Z,21.50
2019-02-19T02:41:16.003Z,19.70
2019-02-19T02:43:44.436Z,19.83
2019-02-19T02:46:12.916Z,19.90
2019-02-19T02:48:41.282Z,20.13
2019-02-19T02:51:09.712Z,19.50
2019-02-19T02:53:38.183Z,21.17
2019-02-19T02:56:06.616Z,20.30
2019-02-19T02:58:35.018Z,20.93
2019-02-19T03:01:03.404Z,19.77
2019-02-19T03:03:31.941Z,19.33
2019-02-19T03:06:02.811Z,19.67
2019-02-19T03:08:31.242Z,19.60
2019-02-19T03:10:59.633Z,19.93
2019-02-19T03:13:28.005Z,20.30
2019-02-19T03:16:02.532Z,19.30
2019-02-19T03:18:26.902Z,20.57
2019-02-19T03:20:55.301Z,20.80
2019-02-19T03:23:23.664Z,20.43
2019-02-19T03:25:52.154Z,20.60
2019-02-19T03:28:20.589Z,19.83
2019-02-19T03:30:48.976Z,20.20
2019-02-19T03:33:17.385Z,20.90
2019-02-19T03:35:45.747Z,21.10
2019-02-19T03:38:14.195Z,20.10
2019-02-19T03:40:42.622Z,19.13
2019-02-19T03:43:11.057Z,19.90
2019-02-19T03:45:39.566Z,19.70
2019-02-19T03:48:08.026Z,18.77
2019-02-19T03:50:36.470Z,20.27
2019-02-19T03:53:05.050Z,19.67
2019-02-19T03:55:33.503Z,19.73
2019-02-19T03:58:02.303Z,20.33
2019-02-19T04:00:30.784Z,20.43
2019-02-19T04:02:59.231Z,19.80
2019-02-19T04:05:27.681Z,19.33
2019-02-19T04:07:56.065Z,20.53
2019-02-19T04:10:24.425Z,20.67
2019-02-19T04:12:52.956Z,19.40
2019-02-19T04:15:21.488Z,19.70
2019-02-19T04:17:49.957Z,20.50
2019-02-19T04:20:18.333Z,20.10
2019-02-19T04:22:46.731Z,21.00
2019-02-19T04:25:15.137Z,20.80
2019-02-19T04:27:43.523Z,18.83
2019-02-19T04:30:12.036Z,19.53
2019-02-19T04:32:40.453Z,20.30
2019-02-19T04:35:09.258Z,20.00
2019-02-19T04:37:37.789Z,21.00
2019-02-19T04:40:08.007Z,20.33
2019-02-19T04:42:36.434Z,20.77
2019-02-19T04:45:05.658Z,20.17
2019-02-19T04:47:34.064Z,19.23
2019-02-19T04:50:02.446Z,19.70
2019-02-19T04:52:31.154Z,20.10
2019-02-19T04:54:59.582Z,20.30
2019-02-19T04:57:28.058Z,18.73
2019-02-19T04:59:56.832Z,19.83
2019-02-19T05:02:25.239Z,19.67
2019-02-19T05:04:53.602Z,18.70
2019-02-19T05:07:22.034Z,19.80
2019-02-19T05:09:50.555Z,19.30
2019-02-19T05:12:18.918Z,18.90
2019-02-19T05:14:47.503Z,18.30
2019-02-19T05:17:16.439Z,20.10
2019-02-19T05:19:44.970Z,18.63
2019-02-19T05:22:13.405Z,19.30
2019-02-19T05:24:41.857Z,19.27
2019-02-19T05:27:10.405Z,19.80
2019-02-19T05:29:38.803Z,19.57
2019-02-19T05:32:07.259Z,19.53
2019-02-19T05:34:35.643Z,18.90
2019-02-19T05:37:04.086Z,19.40
2019-02-19T05:39:32.532Z,17.90
2019-02-19T05:42:00.936Z,19.27
2019-02-19T05:44:29.617Z,20.23
2019-02-19T05:46:58.430Z,18.43
2019-02-19T05:49:26.934Z,18.90
2019-02-19T05:51:55.470Z,18.03
2019-02-19T05:54:23.951Z,18.60
2019-02-19T05:56:52.410Z,18.93
2019-02-19T05:59:20.825Z,18.60
2019-02-19T06:01:49.635Z,18.20
2019-02-19T06:04:18.302Z,19.30
2019-02-19T06:06:46.689Z,19.20
2019-02-19T06:09:15.418Z,19.67
2019-02-19T06:11:43.886Z,17.80
2019-02-19T06:14:12.336Z,18.33
2019-02-19T06:16:40.966Z,18.70
2019-02-19T06:19:09.400Z,19.17
2019-02-19T06:21:38.002Z,18.67
2019-02-19T06:24:06.616Z,18.27
2019-02-19T06:26:35.029Z,18.27
2019-02-19T06:29:03.625Z,18.37
2019-02-19T06:31:32.018Z,18.30
2019-02-19T06:34:00.420Z,17.83
2019-02-19T06:36:29.151Z,19.00
2019-02-19T06:38:57.583Z,18.60
2019-02-19T06:41:26.073Z,17.90
2019-02-19T06:43:54.507Z,18.30
2019-02-19T06:46:22.913Z,17.70
2019-02-19T06:48:51.298Z,17.97
2019-02-19T06:51:19.773Z,19.17
2019-02-19T06:53:48.236Z,18.10
2019-02-19T06:56:16.691Z,18.43
2019-02-19T06:58:45.055Z,18.57
2019-02-19T07:01:13.804Z,18.60
2019-02-19T07:03:43.876Z,18.90
2019-02-19T07:06:12.328Z,18.50
2019-02-19T07:08:40.764Z,18.63
2019-02-19T07:11:09.386Z,18.60
2019-02-19T07:13:37.795Z,18.13
2019-02-19T07:16:06.237Z,17.70
2019-02-19T07:18:34.757Z,17.60
2019-02-19T07:21:03.153Z,19.07
2019-02-19T07:23:31.814Z,18.33
2019-02-19T07:26:00.279Z,18.50
2019-02-19T07:28:28.764Z,19.13
2019-02-19T07:30:58.768Z,17.50
2019-02-19T07:33:27.167Z,17.17
2019-02-19T07:35:55.672Z,17.83
2019-02-19T07:38:24.146Z,18.83
2019-02-19T07:40:52.667Z,18.07
2019-02-19T07:43:21.106Z,17.40
2019-02-19T07:45:49.857Z,18.60
2019-02-19T07:48:18.354Z,17.50
2019-02-19T07:50:46.838Z,18.40
2019-02-19T07:53:15.221Z,18.80
2019-02-19T07:55:43.690Z,18.73
2019-02-19T07:58:12.137Z,17.97
2019-02-19T08:00:40.624Z,19.33
2019-02-19T08:03:08.995Z,18.70
2019-02-19T08:05:37.460Z,18.23
2019-02-19T08:08:06.072Z,18.07
2019-02-19T08:10:34.525Z,17.33
2019-02-19T08:13:03.031Z,19.03
2019-02-19T08:15:31.509Z,18.60
2019-02-19T08:17:59.951Z,17.00
2019-02-19T08:20:28.422Z,17.83
2019-02-19T08:22:56.776Z,17.43
2019-02-19T08:25:25.333Z,17.97
2019-02-19T08:27:53.986Z,18.87
2019-02-19T08:30:22.438Z,17.80
2019-02-19T08:32:50.968Z,17.10
2019-02-19T08:35:19.455Z,18.30
2019-02-19T08:37:47.963Z,18.17
2019-02-19T08:40:16.444Z,18.40
2019-02-19T08:42:44.808Z,17.70
2019-02-19T08:45:13.211Z,17.90
2019-02-19T08:47:42.852Z,17.90
2019-02-19T08:50:11.535Z,17.90
2019-02-19T08:52:40.042Z,18.53
2019-02-19T08:55:08.513Z,19.10
2019-02-19T08:57:36.864Z,20.00
2019-02-19T09:00:08.449Z,19.40
2019-02-19T09:02:36.960Z,19.57
2019-02-19T09:05:07.112Z,18.47
2019-02-19T09:07:35.561Z,19.30
2019-02-19T09:10:05.885Z,20.07
2019-02-19T09:12:34.265Z,20.63
2019-02-19T09:15:02.757Z,21.13
2019-02-19T09:17:31.157Z,20.60
2019-02-19T09:19:59.699Z,21.67
2019-02-19T09:22:28.508Z,21.00
2019-02-19T09:24:57.277Z,25.40
2019-02-19T09:27:25.858Z,22.17
2019-02-19T09:29:54.226Z,22.03
2019-02-19T09:32:22.713Z,25.87
2019-02-19T09:34:52.665Z,22.30
2019-02-19T09:37:21.183Z,22.97
2019-02-19T09:39:49.991Z,22.03
2019-02-19T09:42:18.479Z,22.60
2019-02-19T09:44:47.002Z,21.97
2019-02-19T09:47:15.507Z,21.90
2019-02-19T09:49:43.940Z,23.20
2019-02-19T09:52:12.351Z,23.10
2019-02-19T09:54:40.968Z,22.90
2019-02-19T09:57:11.063Z,22.97
2019-02-19T09:59:39.612Z,23.70
2019-02-19T10:02:08.171Z,24.53
2019-02-19T10:04:36.528Z,23.10
2019-02-19T10:07:05.062Z,23.80
2019-02-19T10:09:33.515Z,23.97
2019-02-19T10:12:01.970Z,24.50
2019-02-19T10:14:30.553Z,24.17
2019-02-19T10:16:58.969Z,23.20
2019-02-19T10:19:27.400Z,23.93
2019-02-19T10:21:55.883Z,25.37
2019-02-19T10:24:24.302Z,24.97
2019-02-19T10:26:52.746Z,25.33
2019-02-19T10:29:21.206Z,24.80
2019-02-19T10:31:49.665Z,24.70
2019-02-19T10:34:18.121Z,25.60
2019-02-19T10:36:46.660Z,25.33
2019-02-19T10:39:15.068Z,24.93
2019-02-19T10:41:43.539Z,26.30
2019-02-19T10:44:12.010Z,27.40
2019-02-19T10:46:40.432Z,26.87
2019-02-19T10:49:08.834Z,26.63
2019-02-19T10:51:37.203Z,24.83
2019-02-19T10:54:05.754Z,25.00
2019-02-19T10:56:34.312Z,27.00
2019-02-19T10:59:02.716Z,24.43
2019-02-19T11:01:31.247Z,24.07
2019-02-19T11:03:59.681Z,25.30
2019-02-19T11:06:28.127Z,25.00
2019-02-19T11:08:56.670Z,26.50
2019-02-19T11:11:25.089Z,24.50
2019-02-19T11:13:53.538Z,24.40
2019-02-19T11:16:21.959Z,25.27
2019-02-19T11:18:50.330Z,26.53
2019-02-19T11:21:19.880Z,24.47
2019-02-19T11:23:48.635Z,25.70
2019-02-19T11:26:17.097Z,25.57
2019-02-19T11:28:45.569Z,23.90
2019-02-19T11:31:14.001Z,23.60
2019-02-19T11:33:42.400Z,24.20
2019-02-19T11:36:10.795Z,22.97
2019-02-19T11:38:39.252Z,22.90
2019-02-19T11:41:07.702Z,22.90
2019-02-19T11:43:36.255Z,21.40
2019-02-19T11:46:04.885Z,22.80
2019-02-19T11:48:36.973Z,21.60
2019-02-19T11:51:03.543Z,21.93
2019-02-19T11:53:31.958Z,21.50
2019-02-19T11:56:00.594Z,22.40
2019-02-19T11:58:29.066Z,20.70
2019-02-19T12:00:57.628Z,22.17
2019-02-19T12:03:26.000Z,21.43
2019-02-19T12:05:54.458Z,21.20
2019-02-19T12:08:22.923Z,20.70
2019-02-19T12:10:51.578Z,23.17
2019-02-19T12:13:20.385Z,21.03
2019-02-19T12:15:48.845Z,21.53
2019-02-19T12:18:17.390Z,22.23
2019-02-19T12:20:46.115Z,21.83
2019-02-19T12:23:14.569Z,22.30
2019-02-19T12:25:43.228Z,20.63
2019-02-19T12:28:11.662Z,21.80
2019-02-19T12:30:40.128Z,22.60
2019-02-19T12:33:08.608Z,21.80
2019-02-19T12:35:36.991Z,22.13
2019-02-19T12:38:05.404Z,21.27
2019-02-19T12:40:33.881Z,22.07
2019-02-19T12:43:02.254Z,22.30
2019-02-19T12:45:30.663Z,20.53
2019-02-19T12:47:59.220Z,21.60
2019-02-19T12:50:27.764Z,21.27
2019-02-19T12:52:56.158Z,21.60
2019-02-19T12:55:24.652Z,21.67
2019-02-19T12:57:53.160Z,22.20
2019-02-19T13:00:21.625Z,21.87
2019-02-19T13:02:50.153Z,24.10
2019-02-19T13:05:18.550Z,23.03
2019-02-19T13:07:47.214Z,21.77
2019-02-19T13:10:15.570Z,22.50
2019-02-19T13:12:44.058Z,23.90
2019-02-19T13:15:18.337Z,22.90
2019-02-19T13:17:47.231Z,23.77
2019-02-19T13:20:15.683Z,21.97
2019-02-19T13:22:44.222Z,23.13
2019-02-19T13:25:12.852Z,21.03
2019-02-19T13:27:41.326Z,22.70
2019-02-19T13:30:18.242Z,22.60
2019-02-19T13:32:46.730Z,20.53
2019-02-19T13:35:15.264Z,20.40
2019-02-19T13:37:43.935Z,19.63
2019-02-19T13:40:21.571Z,19.83
2019-02-19T13:42:49.965Z,18.53
2019-02-19T13:45:18.399Z,17.73
2019-02-19T13:47:47.233Z,18.00
2019-02-19T13:50:18.231Z,18.87
2019-02-19T13:52:51.042Z,17.70
2019-02-19T13:55:21.118Z,17.80
2019-02-19T13:57:49.561Z,17.27
2019-02-19T14:00:22.450Z,17.97
2019-02-19T14:02:50.843Z,17.40
2019-02-19T14:05:19.277Z,17.40
2019-02-19T14:07:47.815Z,16.93
2019-02-19T14:10:16.215Z,16.30
2019-02-19T14:12:44.671Z,16.37
2019-02-19T14:15:29.924Z,17.20
2019-02-19T14:17:59.043Z,16.83
2019-02-19T14:20:37.697Z,16.60
2019-02-19T14:23:19.534Z,15.57
2019-02-19T14:25:52.302Z,16.70
2019-02-19T14:28:22.346Z,15.93
2019-02-19T14:30:55.388Z,16.00
2019-02-19T14:33:48.954Z,15.57
2019-02-19T14:36:21.183Z,15.40
2019-02-19T14:39:07.522Z,15.23
2019-02-19T14:41:55.461Z,15.80
2019-02-19T14:44:25.479Z,15.37
2019-02-19T14:46:58.554Z,15.20
2019-02-19T14:49:37.459Z,15.63
2019-02-19T14:52:06.786Z,15.70
2019-02-19T14:54:39.326Z,14.63
2019-02-19T14:57:09.499Z,14.70
2019-02-19T14:59:42.559Z,14.83
2019-02-19T15:02:24.682Z,15.00
2019-02-19T15:05:06.737Z,16.00
2019-02-19T15:07:39.764Z,15.07
2019-02-19T15:10:29.043Z,14.80
2019-02-19T15:13:05.044Z,16.13
2019-02-19T15:15:35.309Z,15.17
2019-02-19T15:18:14.503Z,16.50
2019-02-19T15:21:00.519Z,16.70
2019-02-19T15:23:42.204Z,14.93
2019-02-19T15:26:12.364Z,15.80
2019-02-19T15:28:57.296Z,14.60
2019-02-19T15:31:27.481Z,16.33
2019-02-19T15:34:00.254Z,13.97
2019-02-19T15:36:39.318Z,14.80
2019-02-19T15:39:09.558Z,14.73
2019-02-19T15:41:58.033Z,13.10
2019-02-19T15:44:28.030Z,13.30
2019-02-19T15:47:03.659Z,14.50
2019-02-19T15:49:33.675Z,13.97
2019-02-19T15:52:03.790Z,14.73
2019-02-19T15:54:33.813Z,14.53
2019-02-19T15:57:09.548Z,14.00
2019-02-19T15:59:42.597Z,13.27
2019-02-19T16:02:21.338Z,13.77
2019-02-19T16:04:51.415Z,13.63
2019-02-19T16:07:35.990Z,14.17
2019-02-19T16:10:21.831Z,14.63
2019-02-19T16:12:54.930Z,13.43
2019-02-19T16:15:28.147Z,12.83
2019-02-19T16:18:01.310Z,12.90
2019-02-19T16:20:34.350Z,12.43
2019-02-19T16:23:16.113Z,13.13
2019-02-19T16:26:03.814Z,13.40
2019-02-19T16:28:37.056Z,13.67
2019-02-19T16:31:23.615Z,14.03
2019-02-19T16:33:53.708Z,13.37
2019-02-19T16:36:29.479Z,13.30
2019-02-19T16:39:05.253Z,13.47
2019-02-19T16:41:38.019Z,13.07
2019-02-19T16:44:27.676Z,12.50
2019-02-19T16:46:57.764Z,13.87
2019-02-19T16:49:28.060Z,13.30
2019-02-19T16:51:58.181Z,13.53
2019-02-19T16:54:28.363Z,14.63
2019-02-19T16:56:58.446Z,12.03
2019-02-19T16:59:44.743Z,12.10
2019-02-19T17:02:14.881Z,12.27
2019-02-19T17:04:44.919Z,12.57
2019-02-19T17:07:17.689Z,12.20
2019-02-19T17:09:50.888Z,12.40
2019-02-19T17:12:23.663Z,12.70
2019-02-19T17:14:53.681Z,13.10
2019-02-19T17:17:23.707Z,11.77
2019-02-19T17:20:05.857Z,12.60
2019-02-19T17:22:44.483Z,11.60
2019-02-19T17:25:17.655Z,12.77
2019-02-19T17:28:05.481Z,12.07
2019-02-19T17:30:51.520Z,11.83
2019-02-19T17:33:21.533Z,12.60
2019-02-19T17:35:52.524Z,12.07
2019-02-19T17:38:25.726Z,11.63
2019-02-19T17:41:01.404Z,12.40
2019-02-19T17:43:46.118Z,11.93
2019-02-19T17:46:16.258Z,11.50
2019-02-19T17:48:51.996Z,11.60
2019-02-19T17:51:22.058Z,11.20
2019-02-19T17:54:08.703Z,11.50
2019-02-19T17:56:54.703Z,11.40
2019-02-19T17:59:24.989Z,11.20
2019-02-19T18:01:57.838Z,11.70
2019-02-19T18:04:30.355Z,10.87
2019-02-19T18:07:06.150Z,11.33
2019-02-19T18:09:36.297Z,11.23
2019-02-19T18:12:06.426Z,11.70
2019-02-19T18:14:42.315Z,10.70
2019-02-19T18:17:12.354Z,10.53
2019-02-19T18:19:40.727Z,10.10
2019-02-19T18:22:09.080Z,10.60
2019-02-19T18:24:37.577Z,12.40
2019-02-19T18:27:06.038Z,10.47
2019-02-19T18:29:34.423Z,10.50
2019-02-19T18:32:02.888Z,10.53
2019-02-19T18:34:31.297Z,10.40
2019-02-19T18:36:59.719Z,10.43
2019-02-19T18:39:28.282Z,10.60
2019-02-19T18:41:57.582Z,10.90
2019-02-19T18:44:26.030Z,10.23
2019-02-19T18:46:54.560Z,10.50
2019-02-19T18:49:23.088Z,10.50
2019-02-19T18:51:51.964Z,10.43
2019-02-19T18:54:20.394Z,9.97
2019-02-19T18:56:48.862Z,10.50
2019-02-19T18:59:17.388Z,10.83
2019-02-19T19:01:45.832Z,10.27
2019-02-19T19:04:14.268Z,10.13
2019-02-19T19:06:42.849Z,10.40
2019-02-19T19:09:11.294Z,10.13
2019-02-19T19:11:41.955Z,11.57
2019-02-19T19:14:10.185Z,10.47
2019-02-19T19:16:38.574Z,10.33
2019-02-19T19:19:06.958Z,10.87
2019-02-19T19:21:35.426Z,10.77
2019-02-19T19:24:03.910Z,10.17
2019-02-19T19:26:32.658Z,10.80
2019-02-19T19:29:01.026Z,10.80
2019-02-19T19:31:33.411Z,10.20
2019-02-19T19:33:59.731Z,10.80
2019-02-19T19:36:28.194Z,10.80
2019-02-19T19:38:56.601Z,11.30
2019-02-19T19:41:25.205Z,11.13
2019-02-19T19:43:53.695Z,11.10
2019-02-19T19:46:22.158Z,11.20
2019-02-19T19:48:50.581Z,11.63
2019-02-19T19:51:18.942Z,10.93
2019-02-19T19:53:47.442Z,10.50
2019-02-19T19:56:15.882Z,10.33
2019-02-19T19:58:44.346Z,11.17
2019-02-19T20:01:12.710Z,11.90
2019-02-19T20:03:41.256Z,11.47
2019-02-19T20:06:09.778Z,11.00
2019-02-19T20:08:38.491Z,11.97
2019-02-19T20:11:07.333Z,10.67
2019-02-19T20:13:35.922Z,11.00
2019-02-19T20:16:05.261Z,11.57
2019-02-19T20:18:39.073Z,11.37
2019-02-19T20:21:04.364Z,11.20
2019-02-19T20:23:32.811Z,12.00
2019-02-19T20:26:01.304Z,12.10
2019-02-19T20:28:30.443Z,11.23
2019-02-19T20:30:58.840Z,11.60
2019-02-19T20:33:27.195Z,11.23
2019-02-19T20:35:55.968Z,11.80
2019-02-19T20:38:24.470Z,11.23
2019-02-19T20:40:53.035Z,12.27
2019-02-19T20:43:21.628Z,11.80
2019-02-19T20:45:50.140Z,12.80
2019-02-19T20:48:18.615Z,11.47
2019-02-19T20:50:47.116Z,11.53
2019-02-19T20:53:15.576Z,11.73
2019-02-19T20:55:44.090Z,12.27
2019-02-19T20:58:12.615Z,12.30
2019-02-19T21:00:41.100Z,12.30
2019-02-19T21:03:09.575Z,12.67
2019-02-19T21:05:38.131Z,12.50
2019-02-19T21:08:06.540Z,13.57
2019-02-19T21:10:34.946Z,12.80
2019-02-19T21:13:03.416Z,12.90
2019-02-19T21:15:31.818Z,12.70
2019-02-19T21:18:00.264Z,13.63
2019-02-19T21:20:28.722Z,13.10
2019-02-19T21:22:57.129Z,13.13
2019-02-19T21:25:31.079Z,12.47
2019-02-19T21:27:55.788Z,12.67
2019-02-19T21:30:24.157Z,12.77
2019-02-19T21:32:52.583Z,12.97
2019-02-19T21:35:21.059Z,12.60
2019-02-19T21:37:49.565Z,12.00
2019-02-19T21:40:18.039Z,12.13
2019-02-19T21:42:46.497Z,11.93
2019-02-19T21:45:15.569Z,11.77
2019-02-19T21:47:44.057Z,11.60
2019-02-19T21:50:15.553Z,11.80
2019-02-19T21:52:43.698Z,10.63
2019-02-19T21:55:12.928Z,11.63
2019-02-19T21:57:41.372Z,11.00
2019-02-19T22:00:13.778Z,11.17
2019-02-19T22:02:42.496Z,10.90
2019-02-19T22:05:10.892Z,10.50
2019-02-19T22:07:39.352Z,10.60
2019-02-19T22:10:12.505Z,10.60
2019-02-19T22:12:41.312Z,10.77
2019-02-19T22:15:11.721Z,10.23
2019-02-19T22:17:40.165Z,10.17
2019-02-19T22:20:34.311Z,10.20
2019-02-19T22:23:02.812Z,9.20
2019-02-19T22:25:31.270Z,9.87
2019-02-19T22:28:00.036Z,9.93
2019-02-19T22:30:28.612Z,9.83
2019-02-19T22:32:57.068Z,9.73
2019-02-19T22:35:25.523Z,10.10
2019-02-19T22:37:53.972Z,9.50
2019-02-19T22:40:22.440Z,9.90
2019-02-19T22:42:50.913Z,10.10
2019-02-19T22:45:19.358Z,10.80
2019-02-19T22:47:53.406Z,10.30
2019-02-19T22:50:17.989Z,10.60
2019-02-19T22:52:46.477Z,10.00
2019-02-19T22:55:22.314Z,10.20
2019-02-19T22:57:50.781Z,10.60
2019-02-19T23:00:32.527Z,10.90
2019-02-19T23:03:00.934Z,10.23
2019-02-19T23:05:29.319Z,10.73
2019-02-19T23:07:57.704Z,10.90
2019-02-19T23:10:26.150Z,11.60
2019-02-19T23:12:54.603Z,11.40
2019-02-19T23:15:23.294Z,10.83
2019-02-19T23:17:51.675Z,10.97
2019-02-19T23:20:20.058Z,11.37
2019-02-19T23:22:48.538Z,11.87
2019-02-19T23:25:16.964Z,11.50
2019-02-19T23:27:45.533Z,11.83
2019-02-19T23:30:14.025Z,11.13
2019-02-19T23:32:42.743Z,11.20
2019-02-19T23:35:24.936Z,12.67
2019-02-19T23:37:53.480Z,12.57
2019-02-19T23:40:21.995Z,12.70
2019-02-19T23:42:50.712Z,13.60
2019-02-19T23:45:19.082Z,13.80
2019-02-19T23:47:47.499Z,12.90
2019-02-19T23:50:16.017Z,13.53
2019-02-19T23:52:44.661Z,13.40
2019-02-19T23:55:13.104Z,13.50
2019-02-19T23:57:41.642Z,14.07
